Tiempo atmosférico en la estación meteorológica de Taramundi, Ouria, Asturias (335 m.)



Fecha
DESCASC
Temp. máxima en grados centígrados (hora)
DESCASC
Temp. mínima en grados centígrados (hora)
DESCASC
Temp. media en grados centígrados
DESCASC
Racha de viento máxima en m/sg (hora)
DESCASC
Velocidad máxima media en intervalos de 10 minutos(hora)
DESCASC
Precipitaciones diarias en mm
DESCASC
Precipitaciones de 00:00 a 06:00 en mm
DESCASC
Precipitaciones de 06:00 a 12:00 en mm
DESCASC
Precipitaciones de 12:00 a 18:00 en mm
DESCASC
Precipitaciones de 18:00 a 24:00 en mm
DESCASC
05-04-2020 18.8 (14:20) 12.5 (22:50) 15.6 21.67 (03:10) 11.94 (03:10) 1.8 0 0 1 0.8
04-04-2020 21.1 (15:10) 7.7 (01:10) 14.4 10.28 (12:40) 6.94 (13:00) 0 0 0 0 0
03-04-2020 14.4 (18:40) 3 (08:10) 8.7 8.33 (01:10) 5.28 (01:00) 0 0 0 0 0
02-04-2020 10 (15:10) 7.2 (00:00) 8.6 11.39 (04:00) 7.5 (04:00) 6 5 1 0 0
01-04-2020 11.6 (13:50) 4.3 (00:00) 8 7.5 (20:10) 5.83 (20:10) 4.4 1.2 0.8 0 2.4
31-03-2020 8.9 (15:30) 1.1 (00:00) 5 15 (12:40) 8.89 (12:40) 2.4 2 0.4 0 0
30-03-2020 6.7 (16:20) 2 (00:00) 4.3 17.5 (17:30) 10.28 (16:40) 4 0 2 0.4 1.6
29-03-2020 12.5 (12:50) 6.1 (00:00) 9.3 15.28 (20:40) 10.56 (17:30) 0 0 0 0 0
28-03-2020 13.4 (15:20) 3.3 (00:00) 8.3 7.78 (15:10) 6.11 (16:40) 0 0 0 0 0
27-03-2020 -- (--) -- (--) -- -- (--) -- (--) -- -- -- -- 0
26-03-2020 -- (--) -- (--) -- -- (--) -- (--) -- -- -- 0 --
25-03-2020 -- (--) -- (--) -- -- (--) -- (--) -- 0 0 -- --
24-03-2020 14.8 (13:30) 5.5 (00:00) 10.2 6.67 (14:20) 5.28 (14:20) 0.2 0 0.2 0 0
23-03-2020 9.6 (00:00) 8.3 (00:00) 9 8.61 (17:10) 5.83 (13:20) 2 0 1.6 0.2 0.2
22-03-2020 11.9 (14:00) 8.9 (05:40) 10.4 8.06 (15:00) 6.39 (16:00) 0.2 0 0 0 0.2
21-03-2020 14.1 (15:20) 9 (00:00) 11.6 5 (18:30) 4.44 (18:40) 0.2 0 0.2 0 0
20-03-2020 -- (--) -- (--) -- -- (--) -- (--) -- -- -- 0.2 5
19-03-2020 -- (--) -- (--) -- -- (--) -- (--) -- -- -- -- --
18-03-2020 -- (--) -- (--) -- -- (--) -- (--) -- -- -- -- --
17-03-2020 -- (--) -- (--) -- -- (--) -- (--) -- 0 0 -- --
16-03-2020 8.9 (17:30) 3.3 (00:00) 6.1 15.56 (07:00) 11.11 (11:10) 6.4 4.6 1.8 0 0
15-03-2020 14.1 (12:10) 3.9 (00:00) 9 12.22 (11:40) 7.78 (11:40) 18.6 0 0 15.2 3.4
14-03-2020 13.3 (13:40) 4.7 (00:00) 9 6.94 (15:20) 5 (16:00) 0 0 0 0 0
13-03-2020 10 (17:10) 6.6 (03:10) 8.3 9.72 (03:10) 7.22 (03:10) 0.2 0.2 0 0 0
12-03-2020 11.7 (02:00) 6.7 (00:00) 9.2 10 (16:30) 7.22 (17:50) 7.4 0 0 6.6 0.8
11-03-2020 16.9 (14:10) 7.9 (00:00) 12.4 7.22 (15:10) 5.83 (15:00) 0 0 0 0 0
10-03-2020 20.2 (16:10) 8.3 (00:00) 14.3 13.33 (05:20) 7.78 (05:20) 0 0 0 0 0

Gráficas

Temp. máximas Temp. mínimas Temp. medias Precipitaciones Rachas de viento máximas Velocidades máximas media en intervalos de 10 minutos

Datos horarios

Fecha y hora oficial Temperatura (ºC) Velocidad del viento (km/h) Dirección del viento Racha (km/h) Dirección de racha Precipitación (mm) Presión (hPa) Tendencia (hPa) Humedad (%)
2020-04-08 23:00:00 10.4 3 Norte 8 Norte 0 -- -- 100
2020-04-08 22:00:00 10.4 4 Norte 9 Norte 0 -- -- 100
2020-04-08 21:00:00 10.5 9 Norte 16 Norte 0 -- -- 100
2020-04-08 20:00:00 10.8 11 Norte 18 Norte 0 -- -- 100
2020-04-08 19:00:00 11.9 14 Norte 17 Norte 0 -- -- 100
2020-04-08 18:00:00 13.6 6 Norte 17 Norte 0 -- -- 96
2020-04-08 17:00:00 17.3 12 Norte 18 Norte 0 -- -- 89
2020-04-08 16:00:00 17.7 13 Norte 18 Norte 0 -- -- 90
2020-04-08 15:00:00 15.7 8 Norte 15 Norte 0 -- -- 95
2020-04-08 14:00:00 16.5 12 Norte 15 Norte 0 -- -- 93
2020-04-08 13:00:00 16.9 11 Norte 15 Norte 0 -- -- 91
2020-04-08 12:00:00 16.1 8 Norte 12 Norte 0 -- -- 93
2020-04-08 11:00:00 14.9 4 Sur 5 Sur 0 -- -- 99
2020-04-08 10:00:00 12.3 2 Norte 12 Sur 0.2 -- -- 100
2020-04-08 09:00:00 10.5 4 Sur 14 Sur 0 -- -- 100
2020-04-08 08:00:00 10 7 Sur 13 Sur 0 -- -- 100
2020-04-08 07:00:00 9.8 5 Sur 14 Sur 0 -- -- 100
2020-04-08 06:00:00 9.4 8 Sur 10 Sur 0 -- -- 100
2020-04-08 05:00:00 9.9 6 Sur 12 Sudoeste 0 -- -- 100
2020-04-08 04:00:00 10 7 Sur 8 Sur 0 -- -- 100
2020-04-08 03:00:00 10.2 4 Sur 12 Sur 0 -- -- 100
2020-04-08 02:00:00 10.6 10 Sur 13 Sudoeste 0 -- -- 100
2020-04-08 01:00:00 10.9 4 Sur 8 Sur 0 -- -- 100
2020-04-08 00:00:00 11.3 6 Sur 10 Sur 0 -- -- 100
2020-04-07 23:00:00 11.1 8 Sur 12 Sur 0 -- -- 100
2020-04-07 22:00:00 11.3 7 Sur 9 Sur 0 -- -- 100
2020-04-07 21:00:00 11.4 2 Norte 6 Norte 0 -- -- 100
2020-04-07 20:00:00 11.8 5 Norte 14 Norte 0.8 -- -- 100
2020-04-07 19:00:00 12.1 9 Norte 12 Noroeste 3.4 -- -- 98
2020-04-07 18:00:00 13 5 Norte 21 Norte 0 -- -- 94
2020-04-07 17:00:00 14.7 18 Norte 22 Norte 0 -- -- 88
2020-04-07 16:00:00 17 15 Norte 19 Norte 0 -- -- 85
2020-04-07 15:00:00 16 14 Norte 18 Norte 0 -- -- 87
2020-04-07 14:00:00 15.9 10 Norte 15 Norte 0 -- -- 89
2020-04-07 13:00:00 15.7 9 Norte 13 Norte 0 -- -- 88
2020-04-07 12:00:00 13.4 4 Norte 11 Norte 0 -- -- 96
2020-04-07 11:00:00 12.1 5 Norte 8 Norte 0 -- -- 100
2020-04-07 10:00:00 10.2 6 Sur 9 Sur 0 -- -- 100
2020-04-07 09:00:00 9.7 6 Sur 9 Sur 0 -- -- 100
2020-04-07 08:00:00 9.7 0 Calma 4 Noroeste 0 -- -- 100
2020-04-07 07:00:00 9.9 0 Calma 5 Noroeste 0 -- -- 100
2020-04-07 06:00:00 10 0 Calma 7 Sur 0 -- -- 100
2020-04-07 05:00:00 10 4 Sur 6 Sur 0 -- -- 100
2020-04-07 04:00:00 9.9 2 Sur 5 Sur 0 -- -- 100
2020-04-07 03:00:00 9.8 0 Calma 6 Nordeste 0 -- -- 100
2020-04-07 02:00:00 9.8 2 Norte 5 Sur 0 -- -- 100
2020-04-07 01:00:00 9.9 4 Sur 5 Sur 0 -- -- 99
2020-04-07 00:00:00 10.2 3 Sur 5 Sur 0 -- -- 99
2020-04-06 23:00:00 10.1 5 Sur 7 Sur 0 -- -- 97
2020-04-06 22:00:00 11 4 Sur 6 Sur 0 -- -- 95
2020-04-06 21:00:00 11.6 0 Calma 8 Norte 0 -- -- 94
2020-04-06 20:00:00 12.2 6 Norte 13 Norte 0 -- -- 91
2020-04-06 19:00:00 13.1 10 Norte 19 Norte 0 -- -- 87
2020-04-06 18:00:00 13.3 13 Norte 19 Norte 0 -- -- 82
2020-04-06 17:00:00 12.9 15 Norte 25 Norte 0 -- -- 81
2020-04-06 16:00:00 13.9 19 Norte 31 Norte 0 -- -- 77
2020-04-06 15:00:00 14.7 17 Norte 22 Norte 0 -- -- 79
2020-04-06 14:00:00 13.9 13 Norte 19 Norte 0 -- -- 84
2020-04-06 13:00:00 14.3 8 Norte 20 Norte 0 -- -- 82
2020-04-06 12:00:00 12.4 10 Norte 14 Norte 0 -- -- 93
2020-04-06 11:00:00 11.4 6 Norte 9 Norte 0 -- -- 98
2020-04-06 10:00:00 11.3 0 Calma 6 Sudoeste 0 -- -- 97
2020-04-06 09:00:00 10.4 3 Sur 7 Sur 0 -- -- 100
2020-04-06 08:00:00 9.9 3 Sur 6 Sur 0 -- -- 100
2020-04-06 07:00:00 9.5 3 Sur 5 Sudoeste 0 -- -- 99
2020-04-06 06:00:00 9.4 3 Sur 5 Sur 0 -- -- 99
2020-04-06 05:00:00 10.2 5 Sur 9 Sur 0 -- -- 97
2020-04-06 04:00:00 11.3 5 Sur 9 Sur 0 -- -- 96
2020-04-06 03:00:00 11.7 2 Sur 8 Sur 0 -- -- 94
2020-04-06 02:00:00 12 0 Calma 7 Sur 0 -- -- 96
2020-04-06 01:00:00 12.2 4 Sur 13 Sudeste 0 -- -- 98
2020-04-06 00:00:00 12.5 4 Sur 14 Sudeste 0 -- -- 99
2020-04-05 23:00:00 12.5 5 Sudoeste 24 Sur 0.4 -- -- 99
2020-04-05 22:00:00 12.6 8 Sur 19 Sur 0 -- -- 98
2020-04-05 21:00:00 13.1 16 Sur 34 Sur 0.2 -- -- 95
2020-04-05 20:00:00 13.5 13 Sur 31 Sudoeste 0.2 -- -- 94
2020-04-05 19:00:00 13.8 13 Sur 39 Sudoeste 0 -- -- 89
2020-04-05 18:00:00 15.6 27 Sur 59 Sur 0.2 -- -- 79
2020-04-05 17:00:00 14.3 36 Sur 54 Sur 0.4 -- -- 85
2020-04-05 16:00:00 15.3 32 Sur 49 Sur 0.4 -- -- 83
2020-04-05 15:00:00 17.4 33 Sur 61 Sudeste 0 -- -- 67
2020-04-05 14:00:00 18 29 Sur 51 Sudeste 0 -- -- 62
2020-04-05 13:00:00 18.4 29 Sur 58 Sur 0 -- -- 59
2020-04-05 12:00:00 18.1 35 Sur 60 Sur 0 -- -- 59
2020-04-05 11:00:00 17 34 Sur 69 Sur 0 -- -- 64
2020-04-05 10:00:00 15.9 41 Sur 60 Sur 0 -- -- 64
2020-04-05 09:00:00 15.9 31 Sur 60 Sur 0 -- -- 62
2020-04-05 08:00:00 15.7 32 Sur 53 Sur 0 -- -- 62
2020-04-05 07:00:00 15.9 27 Sur 51 Sur 0 -- -- 59
2020-04-05 06:00:00 15.9 26 Sur 54 Sur 0 -- -- 56
2020-04-05 05:00:00 16.1 36 Sur 59 Sur 0 -- -- 54
2020-04-05 04:00:00 16.4 34 Sur 78 Sur 0 -- -- 53
2020-04-05 03:00:00 16.5 42 Sur 66 Sur 0 -- -- 51
2020-04-05 02:00:00 16 24 Sur 41 Sur 0 -- -- 50
2020-04-05 01:00:00 15.8 19 Sur 42 Sur 0 -- -- 50
2020-04-05 00:00:00 12.7 5 Sur 18 Sur 0 -- -- 70
2020-04-04 23:00:00 13.3 4 Sur 9 Sur 0 -- -- 67
2020-04-04 22:00:00 13.5 4 Sur 10 Sur 0 -- -- 66
2020-04-04 21:00:00 14.5 5 Sur 8 Sudeste 0 -- -- 63
2020-04-04 20:00:00 16.1 4 Sur 9 Sur 0 -- -- 58
2020-04-04 19:00:00 17 5 Sudeste 14 Norte 0 -- -- 54
2020-04-04 18:00:00 17.4 12 Norte 23 Norte 0 -- -- 56
2020-04-04 17:00:00 18.7 13 Norte 27 Norte 0 -- -- 55
2020-04-04 16:00:00 18.5 15 Norte 23 Sur 0 -- -- 54
2020-04-04 15:00:00 20.9 11 Sur 30 Sur 0 -- -- 40
2020-04-04 14:00:00 20 12 Sur 30 Sur 0 -- -- 44
2020-04-04 13:00:00 18.4 25 Sur 37 Sur 0 -- -- 45
2020-04-04 12:00:00 17.3 15 Sur 35 Sur 0 -- -- 51
2020-04-04 11:00:00 14.7 14 Sur 20 Sur 0 -- -- 65
2020-04-04 10:00:00 11.2 6 Sur 10 Sur 0 -- -- 76
2020-04-04 09:00:00 8.4 3 Sudoeste 8 Sudoeste 0 -- -- 84
2020-04-04 08:00:00 8.3 4 Sur 5 Sur 0 -- -- 86
2020-04-04 07:00:00 8.4 0 Calma 6 Sur 0 -- -- 89
2020-04-04 06:00:00 8.5 0 Calma 7 Sur 0 -- -- 94
2020-04-04 05:00:00 8.4 3 Sur 11 Sur 0 -- -- 96
2020-04-04 04:00:00 8.5 7 Sur 10 Sur 0 -- -- 97
2020-04-04 03:00:00 8 8 Sur 12 Sur 0 -- -- 99
2020-04-04 02:00:00 8.2 7 Sur 13 Sur 0 -- -- 99
2020-04-04 01:00:00 7.8 6 Sur 9 Sur 0 -- -- 98
2020-04-04 00:00:00 8 6 Sur 9 Sudoeste 0 -- -- 98
2020-04-03 23:00:00 7.9 4 Sur 8 Sur 0 -- -- 97
2020-04-03 22:00:00 8.4 6 Sur 9 Sur 0 -- -- 95
2020-04-03 21:00:00 10 4 Sur 6 Sur 0 -- -- 90
2020-04-03 20:00:00 11.4 3 Noroeste 14 Norte 0 -- -- 86
2020-04-03 19:00:00 14 10 Norte 15 Norte 0 -- -- 79
2020-04-03 18:00:00 14 12 Norte 23 Norte 0 -- -- 81
2020-04-03 17:00:00 14.2 15 Norte 22 Norte 0 -- -- 81
2020-04-03 16:00:00 13.7 14 Norte 23 Norte 0 -- -- 81
2020-04-03 15:00:00 13.3 13 Norte 21 Norte 0 -- -- 83
2020-04-03 14:00:00 12.7 9 Norte 16 Norte 0 -- -- 82
2020-04-03 13:00:00 11.8 11 Norte 17 Norte 0 -- -- 84
2020-04-03 12:00:00 10.1 9 Norte 13 Norte 0 -- -- 87
2020-04-03 11:00:00 8.3 6 Sur 9 Sur 0 -- -- 95
2020-04-03 10:00:00 5.1 6 Sur 8 Sur 0 -- -- 100
2020-04-03 09:00:00 3.2 5 Sur 8 Sur 0 -- -- 100
2020-04-03 08:00:00 3.1 4 Sudoeste 7 Sudoeste 0 -- -- 100
2020-04-03 07:00:00 3.9 0 Calma 13 Noroeste 0 -- -- 99
2020-04-03 06:00:00 4.3 9 Norte 14 Norte 0 -- -- 97
2020-04-03 05:00:00 5.7 11 Norte 19 Norte 0 -- -- 95
2020-04-03 04:00:00 6.5 12 Norte 21 Norte 0 -- -- 95
2020-04-03 03:00:00 6.6 13 Norte 24 Norte 0 -- -- 95
2020-04-03 02:00:00 6.8 17 Norte 30 Norte 0 -- -- 97
2020-04-03 01:00:00 7 19 Norte 26 Norte 0 -- -- 98
2020-04-03 00:00:00 7.2 15 Norte 26 Norte 0 -- -- 98
2020-04-02 23:00:00 7.4 19 Norte 28 Norte 0 -- -- 99
2020-04-02 22:00:00 7.7 19 Norte 26 Norte 0 -- -- 99
2020-04-02 21:00:00 7.9 18 Norte 30 Norte 0 -- -- 99
2020-04-02 20:00:00 8.2 16 Norte 23 Norte 0 -- -- 100
2020-04-02 19:00:00 8.5 15 Norte 24 Norte 0 -- -- 100
2020-04-02 18:00:00 9.1 18 Norte 27 Norte 0 -- -- 100
2020-04-02 17:00:00 9.3 19 Norte 30 Norte 0 -- -- 100
2020-04-02 16:00:00 9.2 22 Norte 30 Norte 0 -- -- 100
2020-04-02 15:00:00 9.8 18 Norte 28 Norte 0 -- -- 100
2020-04-02 14:00:00 9.6 18 Norte 26 Norte 0 -- -- 100
2020-04-02 13:00:00 9 18 Norte 28 Noroeste 0 -- -- 100
2020-04-02 12:00:00 8.9 21 Norte 32 Norte 0 -- -- 100
2020-04-02 11:00:00 8.8 20 Norte 28 Norte 0 -- -- 100
2020-04-02 10:00:00 8.9 14 Norte 23 Norte 0 -- -- 100
2020-04-02 09:00:00 8.9 15 Norte 26 Norte 0.4 -- -- 100
2020-04-02 08:00:00 8.9 16 Norte 27 Norte 0 -- -- 100
2020-04-02 07:00:00 9 18 Norte 29 Norte 0.6 -- -- 100
2020-04-02 06:00:00 9.1 19 Norte 31 Norte 0.2 -- -- 100
2020-04-02 05:00:00 9.1 26 Norte 39 Norte 1.2 -- -- 100
2020-04-02 04:00:00 9.1 27 Norte 41 Norte 1.8 -- -- 100
2020-04-02 03:00:00 9.1 19 Norte 32 Norte 1 -- -- 100
2020-04-02 02:00:00 9 20 Norte 37 Norte 0.8 -- -- 100
2020-04-02 01:00:00 9 16 Norte 24 Norte 0 -- -- 100
2020-04-02 00:00:00 9.2 13 Norte 23 Norte 1 -- -- 100
2020-04-01 23:00:00 9.2 17 Norte 25 Norte 0.6 -- -- 100
2020-04-01 22:00:00 9.2 14 Norte 23 Noroeste 0.6 -- -- 100
2020-04-01 21:00:00 9.4 15 Norte 27 Norte 0.2 -- -- 100
2020-04-01 20:00:00 10.5 16 Norte 23 Noroeste 0 -- -- 95
2020-04-01 19:00:00 10.7 13 Norte 24 Norte 0 -- -- 98
2020-04-01 18:00:00 10.8 14 Norte 26 Norte 0 -- -- 97
2020-04-01 17:00:00 10.7 17 Norte 22 Norte 0 -- -- 96
2020-04-01 16:00:00 10.6 14 Norte 17 Norte 0 -- -- 96
2020-04-01 15:00:00 10.1 11 Norte 14 Norte 0 -- -- 93
2020-04-01 14:00:00 11.5 8 Norte 12 Norte 0 -- -- 89
2020-04-01 13:00:00 11.3 8 Norte 13 Norte 0 -- -- 89
2020-04-01 12:00:00 10.8 5 Norte 11 Norte 0 -- -- 94
2020-04-01 11:00:00 8.6 2 Sur 10 Sur 0 -- -- 100
2020-04-01 10:00:00 6.8 5 Sur 14 Sur 0 -- -- 100
2020-04-01 09:00:00 5.4 8 Sur 10 Sur 0 -- -- 100
2020-04-01 08:00:00 5.4 0 Calma 14 Sur 0 -- -- 100
2020-04-01 07:00:00 5.2 8 Sur 18 Sur 0.8 -- -- 100
2020-04-01 06:00:00 5.2 11 Sur 17 Sur 1.2 -- -- 100
2020-04-01 05:00:00 5.2 6 Sur 11 Sur 0 -- -- 99
2020-04-01 04:00:00 4.9 4 Sur 5 Sur 0 -- -- 99
2020-04-01 03:00:00 4.3 2 Sur 5 Sudoeste 0 -- -- 97
2020-04-01 02:00:00 5.1 2 Sudoeste 17 Norte 0 -- -- 94
2020-04-01 01:00:00 6 14 Norte 24 Norte 0 -- -- 93
2020-04-01 00:00:00 7.1 7 Noroeste 27 Norte 0 -- -- 89
2020-03-31 23:00:00 6.9 8 Norte 31 Norte 0 -- -- 89
2020-03-31 22:00:00 7 10 Norte 34 Norte 0 -- -- 89
2020-03-31 21:00:00 6.7 15 Norte 27 Norte 0 -- -- 92
2020-03-31 20:00:00 7.1 17 Norte 36 Norte 0 -- -- 87
2020-03-31 19:00:00 7.4 21 Norte 47 Noroeste 0 -- -- 84
2020-03-31 18:00:00 8.2 24 Norte 48 Norte 0 -- -- 79
2020-03-31 17:00:00 8.5 22 Norte 47 Norte 0 -- -- 79
2020-03-31 16:00:00 8.2 30 Norte 47 Norte 0 -- -- 79
2020-03-31 15:00:00 7.6 14 Nordeste 48 Norte 0 -- -- 78
2020-03-31 14:00:00 7 19 Norte 53 Norte 0 -- -- 80
2020-03-31 13:00:00 5.9 23 Norte 54 Norte 0 -- -- 81
2020-03-31 12:00:00 5.2 28 Norte 51 Norte 0 -- -- 90
2020-03-31 11:00:00 3.9 15 Norte 26 Norte 0 -- -- 100
2020-03-31 10:00:00 2.9 14 Norte 17 Norte 0 -- -- 100
2020-03-31 09:00:00 1.4 7 Norte 13 Nordeste 0 -- -- 100
2020-03-31 08:00:00 1.4 9 Norte 22 Noroeste 0 -- -- 100
2020-03-31 07:00:00 1.5 14 Noroeste 27 Norte 0.4 -- -- 100
2020-03-31 06:00:00 2 19 Norte 31 Norte 0.4 -- -- 100
2020-03-31 05:00:00 2.1 13 Norte 24 Noroeste 0.2 -- -- 100
2020-03-31 04:00:00 2.2 14 Norte 23 Norte 0.4 -- -- 100
2020-03-31 03:00:00 2.4 15 Norte 46 Noroeste 0.4 -- -- 100
2020-03-31 02:00:00 2.7 15 Norte 37 Norte 0.2 -- -- 100
2020-03-31 01:00:00 2.5 21 Norte 38 Norte 0.4 -- -- 100
2020-03-31 00:00:00 2.7 27 Norte 45 Norte 0.8 -- -- 100
2020-03-30 23:00:00 2.9 18 Norte 29 Norte 0 -- -- 100
2020-03-30 22:00:00 2.3 19 Norte 34 Norte 0.4 -- -- 100
2020-03-30 21:00:00 2.1 22 Norte 46 Norte 0.4 -- -- 99
2020-03-30 20:00:00 4.2 23 Norte 45 Norte 0 -- -- 87
2020-03-30 19:00:00 5.4 22 Norte 59 Norte 0 -- -- 81
2020-03-30 18:00:00 4.5 28 Norte 63 Norte 0 -- -- 86
2020-03-30 17:00:00 5.9 26 Norte 57 Norte 0 -- -- 78
2020-03-30 16:00:00 6.5 27 Norte 50 Norte 0.2 -- -- 83
2020-03-30 15:00:00 5.4 32 Norte 55 Norte 0 -- -- 91
2020-03-30 14:00:00 4.9 28 Norte 55 Norte 0.2 -- -- 95
2020-03-30 13:00:00 5 19 Norte 50 Norte 0 -- -- 86
2020-03-30 12:00:00 3.9 24 Norte 41 Norte 0 -- -- 97
2020-03-30 11:00:00 2.5 23 Norte 49 Norte 1 -- -- 100
2020-03-30 10:00:00 2.6 30 Norte 48 Norte 0.2 -- -- 97
2020-03-30 09:00:00 2.9 23 Norte 55 Norte 0.4 -- -- 98
2020-03-30 08:00:00 4 24 Norte 45 Noroeste 0.2 -- -- 94
2020-03-30 07:00:00 4.5 19 Norte 35 Norte 0.2 -- -- 95
2020-03-30 06:00:00 4.2 25 Norte 45 Norte 0 -- -- 90
2020-03-30 05:00:00 5.8 20 Norte 50 Norte 0 -- -- 80
2020-03-30 04:00:00 5.6 35 Norte 63 Norte 0 -- -- 90
2020-03-30 03:00:00 5.6 30 Norte 55 Norte 0 -- -- 97
2020-03-30 02:00:00 6 30 Norte 48 Norte 0 -- -- 98
2020-03-30 01:00:00 6.2 30 Norte 51 Norte 0 -- -- 100
2020-03-30 00:00:00 6.1 31 Norte 51 Norte 0 -- -- 100
2020-03-29 23:00:00 6.2 31 Norte 50 Norte 0 -- -- 100
2020-03-29 22:00:00 6.7 29 Norte 54 Norte 0 -- -- 100
2020-03-29 21:00:00 7.2 29 Norte 55 Norte 0 -- -- 100
2020-03-29 20:00:00 8.6 31 Norte 50 Norte 0 -- -- 95
2020-03-29 19:00:00 9.8 32 Norte 51 Norte 0 -- -- 88
2020-03-29 18:00:00 11.3 33 Norte 52 Norte 0 -- -- 74
2020-03-29 17:00:00 12.2 26 Norte 47 Norte 0 -- -- 70
2020-03-29 16:00:00 11.5 28 Norte 44 Norte 0 -- -- 84
2020-03-29 15:00:00 10.9 29 Norte 43 Norte 0 -- -- 87
2020-03-29 14:00:00 10.8 31 Norte 46 Norte 0 -- -- 87
2020-03-29 13:00:00 12.5 24 Norte 36 Norte 0 -- -- 78
2020-03-29 12:00:00 11.2 22 Norte 30 Norte 0 -- -- 81
2020-03-29 11:00:00 9.8 15 Norte 19 Norte 0 -- -- 90
2020-03-29 10:00:00 7.4 10 Norte 13 Norte 0 -- -- 98
2020-03-29 09:00:00 6.4 8 Norte 12 Norte 0 -- -- 98
2020-03-29 08:00:00 6.7 8 Norte 12 Norte 0 -- -- 98
2020-03-29 07:00:00 7.1 6 Norte 13 Noroeste 0 -- -- 97
2020-03-29 06:00:00 7.3 7 Norte 13 Norte 0 -- -- 97
2020-03-29 05:00:00 6.4 5 Noroeste 13 Noroeste 0 -- -- 100
2020-03-29 03:00:00 7.6 9 Norte 13 Norte 0 -- -- 100
2020-03-29 01:00:00 8 8 Norte 14 Norte 0 -- -- 100
2020-03-29 00:00:00 8.6 10 Norte 15 Norte 0 -- -- 100
2020-03-28 23:00:00 8.6 8 Norte 14 Norte 0 -- -- 100
2020-03-28 22:00:00 8.4 11 Norte 16 Norte 0 -- -- 99
2020-03-28 21:00:00 8.4 10 Norte 17 Norte 0 -- -- 98
2020-03-28 20:00:00 9.3 13 Norte 21 Norte 0 -- -- 95
2020-03-28 19:00:00 10.1 15 Norte 26 Norte 0 -- -- 92
2020-03-28 18:00:00 11 18 Norte 27 Norte 0 -- -- 89
2020-03-28 17:00:00 11.9 21 Norte 28 Norte 0 -- -- 86
2020-03-28 16:00:00 12.5 18 Norte 28 Norte 0 -- -- 81
2020-03-28 15:00:00 13.3 20 Norte 27 Norte 0 -- -- 80
2020-03-28 14:00:00 12.7 21 Norte 26 Norte 0 -- -- 80
2020-03-28 13:00:00 12.4 13 Norte 19 Norte 0 -- -- 79
2020-03-28 12:00:00 11.9 11 Norte 15 Norte 0 -- -- 79
2020-03-28 11:00:00 10.6 5 Norte 8 Norte 0 -- -- 83
2020-03-28 10:00:00 8.5 6 Sur 8 Sur 0 -- -- 85
2020-03-28 09:00:00 5.2 5 Sur 6 Sur 0 -- -- 92
2020-03-28 08:00:00 3.6 3 Sur 5 Sur 0 -- -- 94
2020-03-28 07:00:00 3.8 0 Calma 8 Sur 0 -- -- 93
2020-03-28 06:00:00 3.6 7 Sur 12 Sur 0 -- -- 97
2020-03-28 05:00:00 3.6 7 Sur 9 Sur 0 -- -- 98
2020-03-28 04:00:00 4.1 3 Sur 5 Sur 0 -- -- 98
2020-03-28 03:00:00 4.5 0 Calma 6 Sur 0 -- -- 97
2020-03-28 02:00:00 4.6 3 Sur 6 Sudoeste 0 -- -- 97
2020-03-28 01:00:00 4.4 5 Sur 10 Sur 0 -- -- 98
2020-03-28 00:00:00 4.1 6 Sur 9 Sur 0 -- -- 97
2020-03-27 23:00:00 4.7 7 Sur 8 Sur 0 -- -- 95
2020-03-27 22:00:00 5.3 3 Sur 6 Nordeste 0 -- -- 93
2020-03-27 21:00:00 6 2 Nordeste 4 Nordeste 0 -- -- 91
2020-03-27 20:00:00 7 4 Norte 21 Norte 0 -- -- 88
2020-03-27 19:00:00 8.6 19 Norte 30 Norte 0 -- -- 83
2020-03-27 18:00:00 10.4 21 Norte 37 Norte 0 -- -- 75
2020-03-27 17:00:00 11.2 27 Norte 42 Norte 0 -- -- 72
2020-03-27 16:00:00 11.6 27 Norte 42 Norte 0 -- -- 70
2020-03-27 15:00:00 11.9 22 Norte 41 Norte 0 -- -- 70
2020-03-27 14:00:00 11.3 25 Norte -- -- -- -- -- 68
2020-03-27 13:00:00 -- -- -- -- -- -- -- -- --
2020-03-27 12:00:00 -- -- -- -- -- -- -- -- --
2020-03-27 11:00:00 -- -- -- -- -- -- -- -- --
2020-03-27 10:00:00 7.3 16 Norte 20 Norte 0 -- -- 74
2020-03-27 09:00:00 5 9 Norte -- -- -- -- -- 80
2020-03-27 08:00:00 -- -- -- -- -- -- -- -- --
2020-03-27 07:00:00 -- -- -- -- -- -- -- -- --
2020-03-27 06:00:00 -- -- -- -- -- -- -- -- --
2020-03-27 05:00:00 -- -- -- -- -- -- -- -- --
2020-03-27 04:00:00 -- -- -- -- -- -- -- -- --
2020-03-27 03:00:00 -- -- -- -- -- -- -- -- --
2020-03-27 02:00:00 -- -- -- -- -- -- -- -- --
2020-03-27 01:00:00 -- -- -- -- -- -- -- -- --
2020-03-27 00:00:00 -- -- -- -- -- -- -- -- --
2020-03-26 23:00:00 -- -- -- -- -- -- -- -- --
2020-03-26 22:00:00 -- -- -- -- -- -- -- -- --
2020-03-26 21:00:00 -- -- -- -- -- -- -- -- --
2020-03-26 20:00:00 -- -- -- -- -- -- -- -- --
2020-03-26 19:00:00 -- -- -- -- -- -- -- -- --
2020-03-26 18:00:00 8.8 21 Norte 33 Norte 0 -- -- 77
2020-03-26 17:00:00 10 24 Norte 37 Norte 0 -- -- 77
2020-03-26 16:00:00 9.9 26 Norte 39 Norte 0 -- -- 76
2020-03-26 15:00:00 10.3 31 Norte 38 Norte 0 -- -- 76
2020-03-26 14:00:00 10.3 23 Norte 31 Norte 0 -- -- 78
2020-03-26 13:00:00 9.4 20 Norte 31 Norte 0 -- -- 83
2020-03-26 12:00:00 8.3 20 Norte 26 Norte 0 -- -- 91
2020-03-26 11:00:00 8 12 Norte 18 Norte 0 -- -- 100
2020-03-26 10:00:00 7.2 11 Norte 19 Norte 0 -- -- 100
2020-03-26 09:00:00 5.4 2 Norte -- -- -- -- -- 100
2020-03-26 08:00:00 -- -- -- -- -- -- -- -- --
2020-03-26 07:00:00 -- -- -- -- -- -- -- -- --
2020-03-26 06:00:00 -- -- -- -- -- -- -- -- --
2020-03-26 05:00:00 -- -- -- -- -- -- -- -- --
2020-03-26 04:00:00 -- -- -- -- -- -- -- -- --
2020-03-26 03:00:00 -- -- -- -- -- -- -- -- --
2020-03-26 02:00:00 -- -- -- -- -- -- -- -- --
2020-03-26 01:00:00 -- -- -- -- -- -- -- -- --
2020-03-26 00:00:00 -- -- -- -- -- -- -- -- --
2020-03-25 23:00:00 -- -- -- -- -- -- -- -- --
2020-03-25 22:00:00 -- -- -- -- -- -- -- -- --
2020-03-25 21:00:00 -- -- -- -- -- -- -- -- --
2020-03-25 20:00:00 -- -- -- -- -- -- -- -- --
2020-03-25 19:00:00 -- -- -- -- -- -- -- -- --
2020-03-25 18:00:00 11.5 15 Norte 24 Norte 0 -- -- 97
2020-03-25 17:00:00 12.4 21 Norte 25 Norte 0 -- -- 95
2020-03-25 16:00:00 13 19 Norte 22 Norte 0 -- -- 94
2020-03-25 15:00:00 -- -- -- -- -- -- -- -- --
2020-03-25 14:00:00 14.8 16 Norte 19 Norte 0 -- -- 89
2020-03-25 13:00:00 14.8 16 Norte 21 Norte 0 -- -- 88
2020-03-25 12:00:00 14.9 10 Norte 12 Norte 1.2 -- -- 86
2020-03-25 11:00:00 13.2 6 Norte 11 Norte 0 -- -- 94
2020-03-25 10:00:00 10.9 8 Norte 10 Norte 0 -- -- 100
2020-03-25 09:00:00 8.7 4 Norte 13 Sur 0 -- -- 100
2020-03-25 08:00:00 8.3 8 Sur 12 Sur 0 -- -- 100
2020-03-25 07:00:00 7.9 9 Sur 15 Sur 0 -- -- 100
2020-03-25 06:00:00 7.1 9 Sur 13 Sur 0 -- -- 100
2020-03-25 05:00:00 6.8 4 Norte 12 Sur 0 -- -- 100
2020-03-25 04:00:00 7.6 3 Nordeste 19 Sur 0 -- -- 100
2020-03-25 03:00:00 8.2 14 Sur 19 Sur 0 -- -- 100
2020-03-25 02:00:00 8.8 13 Sur 19 Sur 0 -- -- 100
2020-03-25 01:00:00 9.5 10 Sur 15 Sur 0 -- -- 100
2020-03-25 00:00:00 10.1 2 Sur 8 Nordeste 0 -- -- 100
2020-03-24 23:00:00 10.4 2 Sudoeste 10 Sur 0 -- -- 100
2020-03-24 22:00:00 10.6 3 Sudoeste 6 Sur 0 -- -- 100
2020-03-24 21:00:00 10.7 3 Sur 6 Norte 0 -- -- 100
2020-03-24 20:00:00 10.9 6 Norte 14 Norte 0 -- -- 100
2020-03-24 19:00:00 11 10 Norte 20 Norte 0 -- -- 97
2020-03-24 18:00:00 12.2 16 Norte 23 Norte 0 -- -- 96
2020-03-24 17:00:00 12.9 19 Norte 23 Norte 0 -- -- 95
2020-03-24 16:00:00 14.6 14 Norte 21 Norte 0 -- -- 92
2020-03-24 15:00:00 14.1 15 Norte 24 Norte 0 -- -- 93
2020-03-24 14:00:00 14.3 17 Norte 21 Norte 0 -- -- 94
2020-03-24 13:00:00 14.4 11 Norte 15 Norte 0 -- -- 98
2020-03-24 12:00:00 13.2 4 Sur 15 Sur 0.2 -- -- 100
2020-03-24 11:00:00 11 7 Sur 10 Sur 0 -- -- 100
2020-03-24 10:00:00 8.7 5 Sur 10 Sur 0 -- -- 100
2020-03-24 09:00:00 6.2 6 Sur 10 Sur 0 -- -- 100
2020-03-24 08:00:00 5.7 6 Sur 8 Sudoeste 0 -- -- 100
2020-03-24 07:00:00 5.7 5 Sur 7 Sur 0 -- -- 100
2020-03-24 06:00:00 5.8 3 Sur 9 Sur 0 -- -- 100
2020-03-24 05:00:00 6.1 6 Sur 10 Sur 0 -- -- 100
2020-03-24 04:00:00 6.7 7 Sur 13 Sur 0 -- -- 100
2020-03-24 03:00:00 7.6 6 Sur 16 Sur 0 -- -- 100
2020-03-24 02:00:00 8.4 6 Sur 9 Sur 0 -- -- 100
2020-03-24 01:00:00 8.6 4 Sur 6 Sur 0 -- -- 100
2020-03-24 00:00:00 8.4 0 Calma 4 Noroeste 0 -- -- 100
2020-03-23 23:00:00 8.6 2 Norte 12 Norte 0 -- -- 100
2020-03-23 22:00:00 9.1 9 Norte 13 Norte 0 -- -- 100
2020-03-23 21:00:00 9.3 9 Norte 20 Norte 0 -- -- 100
2020-03-23 20:00:00 9.3 12 Norte 23 Norte 0 -- -- 100
2020-03-23 19:00:00 9.2 16 Norte 27 Norte 0.2 -- -- 100
2020-03-23 18:00:00 9.1 18 Norte 31 Norte 0 -- -- 100
2020-03-23 17:00:00 9.2 18 Norte 28 Norte 0.2 -- -- 100
2020-03-23 16:00:00 9.1 19 Norte 30 Norte 0 -- -- 100
2020-03-23 15:00:00 9.1 21 Norte 26 Norte 0 -- -- 100
2020-03-23 14:00:00 9 18 Norte 28 Norte 0 -- -- 100
2020-03-23 13:00:00 9.4 20 Norte 27 Norte 0 -- -- 100
2020-03-23 12:00:00 9.4 16 Norte 22 Norte 0 -- -- 100
2020-03-23 11:00:00 9.2 13 Norte 19 Norte 0 -- -- 100
2020-03-23 10:00:00 9.1 12 Norte 18 Norte 0.4 -- -- 100
2020-03-23 09:00:00 9 13 Norte 26 Norte 0.6 -- -- 100
2020-03-23 08:00:00 9 14 Norte 24 Norte 0.4 -- -- 100
2020-03-23 07:00:00 9.2 13 Norte 22 Norte 0.2 -- -- 100
2020-03-23 06:00:00 9.2 11 Norte 15 Norte 0 -- -- 100
2020-03-23 05:00:00 9.1 10 Norte 14 Norte 0 -- -- 100
2020-03-23 04:00:00 9.1 12 Norte 21 Norte 0 -- -- 100
2020-03-23 03:00:00 9.3 14 Norte 21 Norte 0 -- -- 100
2020-03-23 02:00:00 9.3 14 Norte 24 Norte 0 -- -- 100
2020-03-23 01:00:00 9.4 15 Norte 24 Norte 0 -- -- 100
2020-03-23 00:00:00 9.6 14 Norte 23 Norte 0.2 -- -- 100
2020-03-22 23:00:00 9.8 15 Norte 24 Norte 0 -- -- 100
2020-03-22 22:00:00 9.9 15 Norte 20 Norte 0 -- -- 100
2020-03-22 21:00:00 10.1 10 Norte 15 Norte 0 -- -- 100
2020-03-22 20:00:00 10.1 9 Norte 15 Norte 0 -- -- 100
2020-03-22 19:00:00 10.3 11 Norte 21 Norte 0 -- -- 100
2020-03-22 18:00:00 10.4 14 Norte 24 Norte 0 -- -- 100
2020-03-22 17:00:00 10.8 16 Norte 26 Norte 0 -- -- 100
2020-03-22 16:00:00 10.9 23 Norte 27 Norte 0 -- -- 99
2020-03-22 15:00:00 11.3 22 Norte 29 Norte 0 -- -- 100
2020-03-22 14:00:00 11.9 15 Norte 24 Norte 0 -- -- 100
2020-03-22 13:00:00 10.6 15 Norte 19 Norte 0 -- -- 100
2020-03-22 12:00:00 10.6 12 Norte 17 Norte 0 -- -- 100
2020-03-22 11:00:00 10.3 9 Norte 12 Norte 0 -- -- 100
2020-03-22 10:00:00 9.8 7 Norte 8 Norte 0 -- -- 100
2020-03-22 09:00:00 9.3 3 Norte 4 Norte 0 -- -- 100
2020-03-22 08:00:00 8.9 0 Calma 6 Norte 0 -- -- 100
2020-03-22 07:00:00 8.9 6 Norte 8 Norte 0 -- -- 100
2020-03-22 06:00:00 9 2 Norte 5 Norte 0 -- -- 100
2020-03-22 05:00:00 9 3 Norte 9 Norte 0 -- -- 100
2020-03-22 04:00:00 9.1 6 Norte 10 Norte 0 -- -- 100
2020-03-22 03:00:00 9.1 9 Norte 14 Norte 0 -- -- 100
2020-03-22 02:00:00 9.3 8 Norte 12 Norte 0 -- -- 100
2020-03-22 01:00:00 9.4 4 Norte 9 Norte 0 -- -- 100
2020-03-22 00:00:00 9.5 4 Norte 7 Norte 0 -- -- 100
2020-03-21 23:00:00 9.6 4 Norte 9 Norte 0 -- -- 100
2020-03-21 22:00:00 9.5 6 Norte 9 Norte 0 -- -- 100
2020-03-21 21:00:00 9.7 6 Norte 9 Norte 0 -- -- 100
2020-03-21 20:00:00 9.8 0 Calma 16 Norte 0 -- -- 100
2020-03-21 19:00:00 9.9 15 Norte 18 Norte 0 -- -- 100
2020-03-21 18:00:00 10.9 9 Norte 11 Norte 0 -- -- 100
2020-03-21 17:00:00 11.8 5 Norte 17 Norte 0 -- -- 100
2020-03-21 16:00:00 13.2 10 Norte 13 Norte 0 -- -- 100
2020-03-21 15:00:00 13.7 5 Norte 11 Norte 0 -- -- 100
2020-03-21 14:00:00 12.5 7 Norte 14 Norte 0 -- -- 100
2020-03-21 13:00:00 12.6 5 Sur 14 Sur 0 -- -- 100
2020-03-21 12:00:00 10.6 0 Calma 7 Sur 0 -- -- 100
2020-03-21 11:00:00 10 4 Noroeste 9 Norte 0.2 -- -- 100
2020-03-21 10:00:00 9.6 3 Sudeste 10 Sur 0 -- -- 100
2020-03-21 09:00:00 9.1 5 Sur 13 Sur 0 -- -- 100
2020-03-21 08:00:00 9.1 4 Sur 9 Sur 0 -- -- 100
2020-03-21 07:00:00 9.1 0 Calma 6 Norte 0 -- -- 100
2020-03-21 06:00:00 9.3 4 Norte 6 Norte 0 -- -- 100
2020-03-21 05:00:00 9.4 3 Norte 6 Norte 0 -- -- 100
2020-03-21 04:00:00 9.5 3 Norte 9 Norte 0 -- -- 100
2020-03-21 03:00:00 9.6 5 Norte 6 Norte 0 -- -- 100
2020-03-21 02:00:00 9.7 3 Noroeste 5 Sudeste 0 -- -- 100
2020-03-21 01:00:00 10 3 Sudoeste 5 Sur 0 -- -- 100
2020-03-21 00:00:00 10.2 2 Sur 5 Norte 0 -- -- 100
2020-03-20 23:00:00 10.3 3 Norte 9 Norte 0 -- -- 100
2020-03-20 22:00:00 10.4 4 Norte 12 Norte 0.8 -- -- 100
2020-03-20 21:00:00 10.7 5 Sur 8 Sur 0 -- -- 100
2020-03-20 20:00:00 10.8 2 Noroeste 7 Sur 4.2 -- -- 100
2020-03-20 19:00:00 11.2 6 Nordeste 11 Nordeste 0 -- -- 100
2020-03-20 18:00:00 11.8 8 Norte 15 Norte 0 -- -- 100
2020-03-20 17:00:00 12.8 12 Norte 15 Norte 0 -- -- 100
2020-03-20 16:00:00 13.9 10 Norte 13 Norte 0 -- -- 100
2020-03-20 15:00:00 13.7 8 Norte 10 Norte 0 -- -- 100
2020-03-20 14:00:00 12.8 4 Norte 8 Noroeste 0.2 -- -- 100
2020-03-20 13:00:00 11.8 3 Norte 6 Sur 0 -- -- 100
2020-03-20 12:00:00 10.4 5 Sur -- -- -- -- -- 100
2020-03-20 11:00:00 -- -- -- -- -- -- -- -- --
2020-03-20 10:00:00 -- -- -- -- -- -- -- -- --
2020-03-20 09:00:00 -- -- -- -- -- -- -- -- --
2020-03-20 08:00:00 -- -- -- -- -- -- -- -- --
2020-03-20 07:00:00 -- -- -- -- -- -- -- -- --
2020-03-20 06:00:00 -- -- -- -- -- -- -- -- --
2020-03-20 05:00:00 -- -- -- -- -- -- -- -- --
2020-03-20 04:00:00 -- -- -- -- -- -- -- -- --
2020-03-20 03:00:00 -- -- -- -- -- -- -- -- --
2020-03-20 02:00:00 -- -- -- -- -- -- -- -- --
2020-03-20 01:00:00 -- -- -- -- -- -- -- -- --
2020-03-20 00:00:00 -- -- -- -- -- -- -- -- --
2020-03-19 23:00:00 -- -- -- -- -- -- -- -- --
2020-03-19 22:00:00 -- -- -- -- -- -- -- -- --
2020-03-19 21:00:00 -- -- -- -- -- -- -- -- --
2020-03-19 20:00:00 -- -- -- -- -- -- -- -- --
2020-03-19 19:00:00 -- -- -- -- -- -- -- -- --
2020-03-19 18:00:00 10.1 -- -- 15 Norte 0 -- -- 100
2020-03-19 17:00:00 10.6 -- -- 17 Norte 0 -- -- 100
2020-03-19 16:00:00 12.1 -- -- 17 Norte 0 -- -- 95
2020-03-19 15:00:00 -- -- -- -- -- -- -- -- --
2020-03-19 14:00:00 14.6 -- -- 13 Norte 0 -- -- 97
2020-03-19 13:00:00 13.5 -- -- 11 Norte 0 -- -- 100
2020-03-19 12:00:00 11.9 -- -- 9 Norte 0 -- -- 100
2020-03-19 11:00:00 9.6 -- -- 5 Norte 0 -- -- 100
2020-03-19 10:00:00 8.5 -- -- -- -- -- -- -- 100
2020-03-19 09:00:00 -- -- -- -- -- -- -- -- --
2020-03-19 08:00:00 -- -- -- -- -- -- -- -- --
2020-03-19 07:00:00 -- -- -- -- -- -- -- -- --
2020-03-19 06:00:00 -- -- -- -- -- -- -- -- --
2020-03-19 05:00:00 -- -- -- -- -- -- -- -- --
2020-03-19 04:00:00 -- -- -- -- -- -- -- -- --
2020-03-19 03:00:00 -- -- -- -- -- -- -- -- --
2020-03-19 02:00:00 -- -- -- -- -- -- -- -- --
2020-03-19 01:00:00 -- -- -- -- -- -- -- -- --
2020-03-19 00:00:00 -- -- -- -- -- -- -- -- --
2020-03-18 23:00:00 -- -- -- -- -- -- -- -- --
2020-03-18 22:00:00 -- -- -- -- -- -- -- -- --
2020-03-18 21:00:00 -- -- -- -- -- -- -- -- --
2020-03-18 20:00:00 -- -- -- -- -- -- -- -- --
2020-03-18 19:00:00 -- -- -- -- -- -- -- -- --
2020-03-18 18:00:00 10.8 11 Norte 16 Norte 0 -- -- 97
2020-03-18 17:00:00 12.4 12 Norte 21 Norte 0 -- -- 93
2020-03-18 16:00:00 13.7 16 Norte 20 Norte 0 -- -- 91
2020-03-18 15:00:00 -- -- -- -- -- -- -- -- --
2020-03-18 14:00:00 14.7 13 Norte 17 Norte 0 -- -- 87
2020-03-18 13:00:00 16.1 10 Norte 14 Norte 0 -- -- 83
2020-03-18 12:00:00 15.8 7 Sur 11 Sur 0 -- -- 82
2020-03-18 11:00:00 12.8 3 Nordeste 9 Sur 0 -- -- 100
2020-03-18 10:00:00 9.4 6 Sur 9 Sur 0 -- -- 100
2020-03-18 09:00:00 6.1 7 Sur -- -- -- -- -- 100
2020-03-18 08:00:00 -- -- -- -- -- -- -- -- --
2020-03-18 07:00:00 -- -- -- -- -- -- -- -- --
2020-03-18 06:00:00 -- -- -- -- -- -- -- -- --
2020-03-18 05:00:00 -- -- -- -- -- -- -- -- --
2020-03-18 04:00:00 -- -- -- -- -- -- -- -- --
2020-03-18 03:00:00 -- -- -- -- -- -- -- -- --
2020-03-18 02:00:00 -- -- -- -- -- -- -- -- --
2020-03-18 01:00:00 -- -- -- -- -- -- -- -- --
2020-03-18 00:00:00 -- -- -- -- -- -- -- -- --
2020-03-17 23:00:00 -- -- -- -- -- -- -- -- --
2020-03-17 22:00:00 -- -- -- -- -- -- -- -- --
2020-03-17 21:00:00 -- -- -- -- -- -- -- -- --
2020-03-17 20:00:00 -- -- -- -- -- -- -- -- --
2020-03-17 19:00:00 -- -- -- -- -- -- -- -- --
2020-03-17 18:00:00 -- -- -- -- -- -- -- -- --
2020-03-17 17:00:00 10.8 14 Norte 25 Norte 0 -- -- 92
2020-03-17 16:00:00 11.1 16 Norte 24 Norte 0 -- -- 91
2020-03-17 15:00:00 10.8 19 Norte 33 Norte 0 -- -- 94
2020-03-17 14:00:00 11.1 22 Norte 33 Norte 0 -- -- 89
2020-03-17 13:00:00 11.7 26 Norte 33 Norte 0 -- -- 85
2020-03-17 12:00:00 11.7 19 Norte 34 Norte 0 -- -- 81
2020-03-17 11:00:00 10.5 23 Norte 36 Norte 0 -- -- 85
2020-03-17 10:00:00 8.5 17 Norte 23 Norte 0 -- -- 95
2020-03-17 09:00:00 5.9 10 Norte 17 Norte 0 -- -- 96
2020-03-17 08:00:00 5.5 9 Noroeste 15 Noroeste 0 -- -- 97
2020-03-17 07:00:00 5 10 Norte 17 Norte 0 -- -- 97
2020-03-17 06:00:00 5.2 13 Norte 19 Norte 0 -- -- 96
2020-03-17 05:00:00 5.4 15 Norte 22 Nordeste 0 -- -- 95
2020-03-17 04:00:00 5.6 14 Norte 28 Norte 0 -- -- 94
2020-03-17 03:00:00 6.7 21 Norte 32 Norte 0 -- -- 92
2020-03-17 02:00:00 6.4 21 Norte 32 Norte 0 -- -- 92
2020-03-17 01:00:00 6.4 18 Norte 30 Norte 0 -- -- 92
2020-03-17 00:00:00 6.2 18 Norte 30 Norte 0 -- -- 91
2020-03-16 23:00:00 6.3 20 Norte 31 Norte 0 -- -- 92
2020-03-16 22:00:00 6.4 17 Norte 27 Norte 0 -- -- 94
2020-03-16 21:00:00 6.7 16 Norte 37 Norte 0 -- -- 93
2020-03-16 20:00:00 7.2 23 Norte 37 Norte 0 -- -- 91
2020-03-16 19:00:00 8 24 Norte 45 Norte 0 -- -- 86
2020-03-16 18:00:00 8.4 32 Norte 48 Norte 0 -- -- 86
2020-03-16 17:00:00 8.3 25 Norte 41 Norte 0 -- -- 89
2020-03-16 16:00:00 8.5 30 Norte 52 Norte 0 -- -- 84
2020-03-16 15:00:00 8.6 25 Norte 49 Norte 0 -- -- 89
2020-03-16 14:00:00 8.5 37 Norte 52 Norte 0 -- -- 93
2020-03-16 13:00:00 8.5 39 Norte 53 Norte 0 -- -- 97
2020-03-16 12:00:00 7.4 25 Norte 54 Norte 0.4 -- -- 100
2020-03-16 11:00:00 7.4 31 Norte 48 Norte 0.6 -- -- 99
2020-03-16 10:00:00 6.8 28 Norte 44 Norte 0.2 -- -- 100
2020-03-16 09:00:00 6.3 24 Norte 35 Norte 0 -- -- 100
2020-03-16 08:00:00 5.3 19 Norte 31 Norte 0.2 -- -- 100
2020-03-16 07:00:00 5 26 Norte 56 Norte 0.4 -- -- 100
2020-03-16 06:00:00 5.1 10 Norte 23 Norte 0.6 -- -- 100
2020-03-16 05:00:00 4.2 9 Norte 39 Norte 1 -- -- 100
2020-03-16 04:00:00 4.2 8 Norte 12 Norte 0.4 -- -- 100
2020-03-16 03:00:00 3.6 3 Norte 9 Norte 0.2 -- -- 100
2020-03-16 02:00:00 3.3 0 Calma 6 Sur 1.8 -- -- 100
2020-03-16 01:00:00 3.7 4 Sur 14 Sur 0.6 -- -- 100
2020-03-16 00:00:00 3.9 4 Sur 12 Sur 1.2 -- -- 100
2020-03-15 23:00:00 4.3 4 Sudoeste 18 Norte 0.8 -- -- 100
2020-03-15 22:00:00 4.1 6 Sudoeste 20 Norte 0.6 -- -- 100
2020-03-15 21:00:00 4 6 Sur 10 Sur 0.2 -- -- 100
2020-03-15 20:00:00 3.9 5 Sur 15 Sur 0 -- -- 100
2020-03-15 19:00:00 3.9 11 Sur 19 Sur 0.6 -- -- 100
2020-03-15 18:00:00 4.1 9 Sur 16 Sur 1 -- -- 100
2020-03-15 17:00:00 4.2 10 Sur 17 Sur 2.4 -- -- 100
2020-03-15 16:00:00 4.4 4 Nordeste 37 Norte 5.6 -- -- 100
2020-03-15 15:00:00 6.1 8 Norte 34 Norte 3.6 -- -- 100
2020-03-15 14:00:00 7.1 15 Norte 29 Norte 1.6 -- -- 98
2020-03-15 13:00:00 8.1 14 Norte 35 Noroeste 1 -- -- 92
2020-03-15 12:00:00 13.6 28 Sur 44 Sur 0 -- -- 66
2020-03-15 11:00:00 12.1 23 Sur 43 Sudeste 0 -- -- 76
2020-03-15 10:00:00 8.5 26 Sur 39 Sur 0 -- -- 95
2020-03-15 09:00:00 6.5 22 Sur 34 Sur 0 -- -- 99
2020-03-15 08:00:00 5.2 7 Sur 15 Sudoeste 0 -- -- 99
2020-03-15 07:00:00 5.2 7 Sur 13 Sur 0 -- -- 97
2020-03-15 06:00:00 5.8 7 Sur 16 Sur 0 -- -- 98
2020-03-15 05:00:00 5.5 9 Sur 17 Sur 0 -- -- 98
2020-03-15 04:00:00 6.1 9 Sur 16 Sur 0 -- -- 98
2020-03-15 03:00:00 6.3 12 Sur 19 Sur 0 -- -- 99
2020-03-15 02:00:00 5.9 8 Sur 13 Sudoeste 0 -- -- 99
2020-03-15 01:00:00 5.8 8 Sur 13 Sur 0 -- -- 100
2020-03-15 00:00:00 6 5 Sur 7 Sur 0 -- -- 98
2020-03-14 23:00:00 6.2 6 Sur 7 Sur 0 -- -- 97
2020-03-14 22:00:00 6.4 6 Sur 6 Sur 0 -- -- 95
2020-03-14 21:00:00 6.8 5 Sur 6 Sur 0 -- -- 93
2020-03-14 20:00:00 7.9 0 Calma 7 Norte 0 -- -- 89
2020-03-14 19:00:00 9.3 5 Norte 12 Noroeste 0 -- -- 86
2020-03-14 18:00:00 11.1 9 Norte 20 Norte 0 -- -- 79
2020-03-14 17:00:00 12.7 14 Norte 22 Norte 0 -- -- 77
2020-03-14 16:00:00 12.8 18 Norte 25 Norte 0 -- -- 76
2020-03-14 15:00:00 13.1 17 Norte 22 Norte 0 -- -- 75
2020-03-14 14:00:00 13 15 Norte 21 Norte 0 -- -- 75
2020-03-14 13:00:00 12.7 8 Norte 16 Norte 0 -- -- 74
2020-03-14 12:00:00 11.9 7 Norte 19 Norte 0 -- -- 77
2020-03-14 11:00:00 11 5 Norte 10 Sur 0 -- -- 81
2020-03-14 10:00:00 8.2 8 Sur 12 Sur 0 -- -- 96
2020-03-14 09:00:00 5.1 6 Sur 10 Sur 0 -- -- 100
2020-03-14 08:00:00 4.8 4 Sur 8 Sudoeste 0 -- -- 100
2020-03-14 07:00:00 4.7 4 Sur 7 Sur 0 -- -- 99
2020-03-14 06:00:00 6.3 0 Calma 4 Sudoeste 0 -- -- 97
2020-03-14 05:00:00 7.3 0 Calma 3 Nordeste 0 -- -- 98
2020-03-14 04:00:00 7.6 0 Calma 11 Norte 0 -- -- 100
2020-03-14 03:00:00 7.7 3 Nordeste 5 Norte 0 -- -- 100
2020-03-14 02:00:00 7.8 2 Norte 6 Norte 0 -- -- 100
2020-03-14 01:00:00 8 4 Norte 6 Norte 0 -- -- 100
2020-03-14 00:00:00 8 4 Norte 9 Norte 0 -- -- 100
2020-03-13 23:00:00 8.3 6 Norte 8 Nordeste 0 -- -- 100
2020-03-13 22:00:00 8.1 3 Norte 6 Noroeste 0 -- -- 100
2020-03-13 21:00:00 8.4 5 Norte 13 Norte 0 -- -- 99
2020-03-13 20:00:00 8.6 5 Norte 15 Norte 0 -- -- 98
2020-03-13 19:00:00 9.1 12 Norte 21 Norte 0 -- -- 96
2020-03-13 18:00:00 9.7 10 Norte 18 Norte 0 -- -- 93
2020-03-13 17:00:00 9.9 9 Norte 19 Norte 0 -- -- 94
2020-03-13 16:00:00 9.3 17 Norte 26 Norte 0 -- -- 95
2020-03-13 15:00:00 9.4 18 Norte 26 Norte 0 -- -- 95
2020-03-13 14:00:00 9.6 19 Norte 30 Norte 0 -- -- 95
2020-03-13 13:00:00 9.7 18 Norte 31 Norte 0 -- -- 97
2020-03-13 12:00:00 9.1 19 Norte 29 Norte 0 -- -- 99
2020-03-13 11:00:00 8.4 21 Norte 31 Norte 0 -- -- 100
2020-03-13 10:00:00 7.7 17 Norte 29 Norte 0 -- -- 100
2020-03-13 09:00:00 7.3 18 Norte 27 Norte 0 -- -- 100
2020-03-13 08:00:00 6.9 18 Norte 33 Norte 0 -- -- 100
2020-03-13 07:00:00 6.8 19 Norte 30 Norte 0 -- -- 100
2020-03-13 06:00:00 6.7 17 Norte 29 Norte 0 -- -- 100
2020-03-13 05:00:00 6.7 21 Norte 32 Norte 0 -- -- 100
2020-03-13 04:00:00 6.6 23 Norte 35 Norte 0 -- -- 100
2020-03-13 03:00:00 6.7 26 Norte 34 Norte 0.2 -- -- 100
2020-03-13 02:00:00 7 14 Norte 23 Norte 0 -- -- 100
2020-03-13 01:00:00 6.9 14 Norte 25 Norte 0 -- -- 100
2020-03-13 00:00:00 6.8 14 Norte 23 Norte 0 -- -- 100
2020-03-12 23:00:00 6.8 15 Norte 27 Norte 0 -- -- 100
2020-03-12 22:00:00 6.7 19 Norte 28 Norte 0 -- -- 100
2020-03-12 21:00:00 7 19 Norte 30 Norte 0.2 -- -- 100
2020-03-12 20:00:00 6.9 17 Norte 31 Norte 0.2 -- -- 100
2020-03-12 19:00:00 7.2 21 Norte 35 Norte 0.4 -- -- 100
2020-03-12 18:00:00 7.6 26 Norte 35 Norte 1.6 -- -- 100
2020-03-12 17:00:00 8 23 Norte 36 Norte 2 -- -- 100
2020-03-12 16:00:00 8.9 18 Norte 25 Norte 2 -- -- 100
2020-03-12 15:00:00 9.3 17 Norte 27 Norte 1 -- -- 100
2020-03-12 14:00:00 9.9 14 Norte 24 Norte 0 -- -- 96
2020-03-12 13:00:00 10.5 13 Norte 21 Norte 0 -- -- 95
2020-03-12 12:00:00 11.4 12 Norte 16 Norte 0 -- -- 92
2020-03-12 11:00:00 10.7 11 Norte 18 Norte 0 -- -- 98
2020-03-12 10:00:00 10.4 11 Norte 16 Norte 0 -- -- 98
2020-03-12 09:00:00 10.3 9 Norte 12 Norte 0 -- -- 98
2020-03-12 08:00:00 10 5 Norte 10 Norte 0 -- -- 94
2020-03-12 07:00:00 10.5 0 Calma 2 Norte 0 -- -- 91
2020-03-12 06:00:00 10.5 0 Calma 2 Sudeste 0 -- -- 93
2020-03-12 05:00:00 10.9 0 Calma 4 Sur 0 -- -- 94
2020-03-12 04:00:00 11.2 2 Sur 5 Sur 0 -- -- 94
2020-03-12 03:00:00 11.5 4 Sur 10 Sur 0 -- -- 93
2020-03-12 02:00:00 11.7 6 Sur 13 Sur 0 -- -- 96
2020-03-12 01:00:00 11.6 5 Sur 6 Sur 0 -- -- 97
2020-03-12 00:00:00 11.6 0 Calma 7 Noroeste 0 -- -- 96
2020-03-11 23:00:00 11.7 0 Calma 7 Sur 0 -- -- 96
2020-03-11 22:00:00 11.7 2 Sur 10 Sur 0 -- -- 95
2020-03-11 21:00:00 12 4 Sur 8 Sur 0 -- -- 95
2020-03-11 20:00:00 12 3 Norte 15 Norte 0 -- -- 94
2020-03-11 19:00:00 12.4 11 Norte 19 Norte 0 -- -- 93
2020-03-11 18:00:00 12.8 14 Norte 24 Norte 0 -- -- 91
2020-03-11 17:00:00 13.9 19 Norte 26 Norte 0 -- -- 87
2020-03-11 16:00:00 14.1 21 Norte 26 Norte 0 -- -- 85
2020-03-11 15:00:00 15.3 21 Norte 25 Norte 0 -- -- 81
2020-03-11 14:00:00 16.8 11 Norte 13 Norte 0 -- -- 81
2020-03-11 13:00:00 16.5 8 Norte 13 Norte 0 -- -- 80
2020-03-11 12:00:00 14.7 8 Norte 12 Norte 0 -- -- 86
2020-03-11 11:00:00 13.5 5 Norte 12 Sur 0 -- -- 91
2020-03-11 10:00:00 10.5 9 Sur 13 Sur 0 -- -- 100
2020-03-11 09:00:00 8 5 Sur 12 Sur 0 -- -- 100
2020-03-11 08:00:00 8.3 8 Sur 10 Sur 0 -- -- 100
2020-03-11 07:00:00 8.5 4 Sudoeste 7 Sudoeste 0 -- -- 100
2020-03-11 06:00:00 8.8 0 Calma 17 Sur 0 -- -- 99
2020-03-11 05:00:00 9.3 7 Sur 15 Sur 0 -- -- 99
2020-03-11 04:00:00 9.1 6 Sur 12 Sur 0 -- -- 98
2020-03-11 03:00:00 9.4 5 Sur 10 Sudeste 0 -- -- 98
2020-03-11 02:00:00 9.5 0 Calma 6 Sur 0 -- -- 96
2020-03-11 01:00:00 10.1 0 Calma 23 Sudoeste 0 -- -- 95
2020-03-11 00:00:00 11 13 Sur 29 Sudoeste 0 -- -- 92
2020-03-10 23:00:00 12.4 20 Sur 33 Sudoeste 0 -- -- 90
2020-03-10 22:00:00 11.5 13 Sur 22 Sur 0 -- -- 96
2020-03-10 21:00:00 11 3 Sur 11 Sur 0 -- -- 93
2020-03-10 20:00:00 11.9 6 Sur 9 Sur 0 -- -- 90
2020-03-10 19:00:00 12.8 2 Norte 13 Norte 0 -- -- 86
2020-03-10 18:00:00 15 9 Norte 26 Sur 0 -- -- 74
2020-03-10 17:00:00 19.9 18 Sur 37 Sur 0 -- -- 55
2020-03-10 16:00:00 19.8 21 Sur 37 Sudeste 0 -- -- 55
2020-03-10 15:00:00 19.5 18 Sur 37 Sur 0 -- -- 54
2020-03-10 14:00:00 18.4 21 Sur 45 Sur 0 -- -- 55
2020-03-10 13:00:00 18 21 Sur 31 Sur 0 -- -- 53
2020-03-10 12:00:00 16.4 13 Sur 26 Sur 0 -- -- 54
2020-03-10 11:00:00 13.9 15 Sur 29 Sur 0 -- -- 61
2020-03-10 10:00:00 11.4 16 Sur 26 Sur 0 -- -- 60
2020-03-10 09:00:00 9 18 Sur 29 Sur 0 -- -- 71
2020-03-10 08:00:00 10.9 8 Sur 32 Sudeste 0 -- -- 52
2020-03-10 07:00:00 11.3 17 Sur 32 Sur 0 -- -- 51
2020-03-10 06:00:00 11.7 21 Sur 48 Sur 0 -- -- 56
2020-03-10 05:00:00 9.2 22 Sur 35 Sur 0 -- -- 80
2020-03-10 04:00:00 9.9 15 Sur 31 Sur 0 -- -- 73
2020-03-10 03:00:00 11.3 20 Sur 39 Sur 0 -- -- 66
2020-03-10 02:00:00 11.3 24 Sur 38 Sur 0 -- -- 73
2020-03-10 01:00:00 11.8 26 Sur 36 Sur 0 -- -- 72
2020-03-10 00:00:00 11.7 19 Sur 31 Sur 0 -- -- 72